Lexington, Illinois
Current Conditions -  °F | °C
As of 9:56 PM on Tuesday 21 Oct 2014 (Local Time) from KBMI Reporting Station
Clear Clear  
Wind Chill:   Ceiling: Unl
Heat Index:   Visibility: 10mi
Dew Point:   Wind: 8mph
Humidity: 89%   Direction: 60°ENE
Pressure: 30.25"   Gusts: NA
Location:  40.64°N, 88.78°W
Report Text: KBMI 220256Z 06007KT 10SM CLR 06/04 A3025 RMK AO2 51018 T00550038 SLP250
Loading
Personal Weather Stations






























Interactive Weather Map
Tropical Storm Tracking
New forecast layout! Learn more

10-Day Weather Forecast

Advertisements
Track Severe Weather on mobile